Relevés horaires Cimetta (Suisse)


Relevés horaires à Cimetta - Lundi 03 Sept. 2018
Heure UTC1 Température [°C] Vent [km/h] Hum. [%] Pres.4 [hPa] Visi. [Km] Nébu. [octa] Préc.5 [mm] Cond.
2m. Res. Ros. Dir.2 Vit. Moy. Raf.3
23:00 10.1 9.7 5.8 O 5.6 -- -- 75 850 -- -- -- --
22:00 10.2 9.8 6.8 ONO 5.6 -- -- 79 850 -- -- -- --
21:00 9.4 8.4 7.0 NNO 7.4 -- 14.8 85 850(0.2/3h) -- -- -- --
20:00 10.0 8.8 6.7 ONO 9.3 -- -- 80 850 -- -- -- --
19:00 9.8 8.2 7.0 ONO 11.1 -- -- 83 850 -- -- -- --
18:00 9.7 9.7 7.5 NNE 1.9 -- 16.7 86 850(0.4/3h) -- -- 1/12h
--
17:00 9.3 8.3 8.4 NE 7.4 -- -- 94 850 -- -- -- --
16:00 10.5 10.5 8.9 NE 3.7 -- -- 90 850 -- -- -- --
15:00 9.6 7.7 7.5 NE 13.0 -- 16.7 87 850(-0.2/3h) -- -- -- --
14:00 11.1 10.1 8.8 ENE 9.3 -- -- 86 850 -- -- -- --
13:00 15.1 15.1 9.7 ENE 7.4 -- -- 70 850 -- -- -- --
12:00 12.2 12.1 8.9 SO 5.6 -- 16.7 80 850(-0.5/3h) -- -- 0/6h
--
11:00 11.4 11.2 7.4 SE 5.6 -- -- 76 850 -- -- -- --
10:00 10.5 10.5 6.7 O 3.7 -- -- 77 850 -- -- -- --
09:00 11.0 11.0 8.2 ESE 1.9 -- 5.6 83 850(0.2/3h) -- -- -- --
08:00 10.1 10.1 7.9 SE 1.9 -- -- 86 850 -- -- -- --
07:00 9.9 9.9 6.8 SO 1.9 -- -- 81 850 -- -- -- --
06:00 8.3 7.6 4.9 NO 5.6 -- 14.8 79 850(-0.6/3h) -- -- 6/12h
16.7/24h
--
05:00 7.3 7.3 6.1 N 3.7 -- -- 92 850 -- -- -- --
04:00 8.3 7.6 5.2 NO 5.6 -- -- 81 850 -- -- -- --
03:00 7.8 7.1 6.3 NO 5.6 -- 14.8 90 850(-0.6/3h) -- -- -- --
02:00 7.8 5.8 6.2 NO 11.1 -- -- 90 850 -- -- -- --
01:00 8.0 8.0 6.3 ONO 3.7 -- -- 89 850 -- -- -- --
00:00 7.6 6.3 6.3 NO 7.4 -- 13.0 91 850(-0.9/3h) -- -- 6/6h
--

1 Coordinated Universal Time. Actuellement il est 20:00 locale et 18:00 UTC.

2 Le vent souffle depuis la direction indiquée vers la direction oposée.

3 Les rafales max. sont disponible 40 min après l'heure du relevé.

4 Pour les stations d'altitude (plus de 600m) le géopotentiel du niveau le plus proche de la pression obligatoire est indiqué.

5 Les stations disposant d'un diffuseur peuvent indiquer "trace". Cela signifie que des précipitations ont touchés le sol mais que la quantité est inférieure à 0.1 mm.

Récapitulatif de la journée
Température [°C] Vent [km/h] Ensoleillement4 [h] Precipitations totale5 [mm] Pression [Hpa]
Min1 Max.2 Moy.3 Max. Min Max.
7.3 15.7 0 16.7 4 h 24 min 1.2 850.0 850.0

1 Température minimale relevée entre 18:00 UTC la veille et 18:00 UTC le jour donné.

2 Température maximale relevée entre 06:00 UTC le jour donné et 06:00 UTC le lendemain.

3 Vent moyen de la journée basé sur les relevés horaires.

4 Ensoleillement en heures relevé entre 06:00 UTC la veille et 06:00 UTC le jour donné.

5 Précipitations totales tombées entre 06:00 UTC la jour donné et 06:00 UTC le lendemain.

Graphiques horaires